Time;durP1;ratioP1;P1;durP2;ratioP2;P2;SDS_P1;SDS_P2;PMS_P1;PMS_P2;Temp;Humidity;BMP_temperature;BMP_pressure;BME280_temperature;BME280_humidity;BME280_pressure;Samples;Min_cycle;Max_cycle;Signal;HPM_P1;HPM_P2
2023/05/15 00:01:32;;;;;;;;;;;;;;;11.65;47.73;101748.47;7354533;19;19906;-64
2023/05/15 00:03:57;;;;;;;;;;;;;;;11.61;47.35;101752.03;7347638;19;19923;-65
2023/05/15 00:06:23;;;;;;;;;;;;;;;11.57;48.01;101755.56;7353083;19;19926;-64
2023/05/15 00:08:48;;;;;;;;;;;;;;;11.52;47.94;101758.22;7349092;19;19943;-64
2023/05/15 00:11:13;;;;;;;;;;;;;;;11.48;47.71;101756.50;7351937;19;19947;-64
2023/05/15 00:13:38;;;;;;;;;;;;;;;11.43;47.64;101759.16;7350180;19;19935;-64
2023/05/15 00:16:05;;;;;;;;;;;;;;;11.39;47.68;101762.69;7347584;19;20561;-64
2023/05/15 00:18:30;;;;;;;;;;;;;;;11.35;47.73;101770.56;7354446;19;19927;-64
2023/05/15 00:20:55;;;;;;;;;;;;;;;11.31;47.64;101768.88;7358352;19;19936;-64
2023/05/15 00:23:20;;;;;;;;;;;;;;;11.26;47.41;101762.81;7355711;19;20373;-64
2023/05/15 00:25:46;;;;;;;;;;;;;;;11.21;48.05;101757.63;7359671;19;19921;-65
2023/05/15 00:28:11;;;;;;;;;;;;;;;11.17;47.62;101766.38;7357704;19;20411;-64
2023/05/15 00:30:36;;;;;;;;;;;;;;;11.12;47.97;101757.69;7355124;19;20248;-64
2023/05/15 00:33:01;;;;;;;;;;;;;;;11.06;48.19;101763.84;7357463;19;19986;-64
2023/05/15 00:35:27;;;;;;;;;;;;;;;11.01;48.31;101763.00;7359541;19;19923;-65
2023/05/15 00:37:52;;;;;;;;;;;;;;;10.97;47.84;101769.13;7357423;19;19951;-64
2023/05/15 00:40:19;;;;;;;;;;;;;;;10.93;47.92;101764.81;7360274;19;19918;-64
2023/05/15 00:42:45;;;;;;;;;;;;;;;10.89;47.99;101770.91;7355413;19;19963;-64
2023/05/15 00:45:11;;;;;;;;;;;;;;;10.85;48.38;101772.72;7358624;19;19911;-64
2023/05/15 00:47:39;;;;;;;;;;;;;;;10.82;48.56;101785.78;7360177;19;20248;-64
2023/05/15 00:50:05;;;;;;;;;;;;;;;10.79;48.25;101779.69;7357577;19;19918;-65
2023/05/15 00:52:31;;;;;;;;;;;;;;;10.75;48.79;101778.88;7357186;19;19919;-64
2023/05/15 00:54:56;;;;;;;;;;;;;;;10.72;48.72;101780.63;7358772;19;19951;-64
2023/05/15 00:57:22;;;;;;;;;;;;;;;10.69;48.40;101783.25;7358921;19;19918;-64
2023/05/15 00:59:48;;;;;;;;;;;;;;;10.65;48.65;101778.06;7357945;19;20654;-64
2023/05/15 01:02:14;;;;;;;;;;;;;;;10.62;48.40;101783.28;7353349;19;19910;-65
2023/05/15 01:04:40;;;;;;;;;;;;;;;10.58;48.72;101778.09;7355920;19;20708;-64
2023/05/15 01:07:05;;;;;;;;;;;;;;;10.53;48.81;101780.72;7357184;19;19934;-64
2023/05/15 01:09:31;;;;;;;;;;;;;;;10.51;48.66;101785.09;7358432;19;19919;-65
2023/05/15 01:11:57;;;;;;;;;;;;;;;10.47;49.18;101783.38;7357532;19;19922;-64
2023/05/15 01:14:23;;;;;;;;;;;;;;;10.43;48.96;101773.81;7358310;19;19947;-64
2023/05/15 01:16:48;;;;;;;;;;;;;;;10.42;48.89;101786.88;7355029;19;19940;-64
2023/05/15 01:19:13;;;;;;;;;;;;;;;10.37;49.56;101784.28;7357095;19;20409;-64
2023/05/15 01:22:07;;;;;;;;;;;;;;;10.34;48.99;101777.34;7360246;19;19918;-64
2023/05/15 01:24:32;;;;;;;;;;;;;;;10.30;49.13;101780.84;7355510;19;20611;-64
2023/05/15 01:27:03;;;;;;;;;;;;;;;10.28;48.84;101786.94;7358680;19;19923;-64
2023/05/15 01:29:31;;;;;;;;;;;;;;;10.25;49.17;101777.38;7353980;19;19929;-64
2023/05/15 01:32:01;;;;;;;;;;;;;;;10.21;48.98;101785.19;7355001;19;20004;-64
2023/05/15 01:34:42;;;;;;;;;;;;;;;10.19;49.35;101781.72;7357932;19;19926;-64
2023/05/15 01:37:10;;;;;;;;;;;;;;;10.14;49.04;101780.00;7357040;19;20261;-64
2023/05/15 01:39:37;;;;;;;;;;;;;;;10.11;49.24;101786.97;7356512;19;20715;-64
2023/05/15 01:42:06;;;;;;;;;;;;;;;10.08;49.45;101790.44;7357725;19;19926;-64
2023/05/15 01:44:34;;;;;;;;;;;;;;;10.06;49.32;101793.94;7354374;19;19919;-64
2023/05/15 01:47:03;;;;;;;;;;;;;;;10.02;49.51;101795.69;7355093;19;20389;-64
2023/05/15 01:49:29;;;;;;;;;;;;;;;10.00;49.52;101796.59;7354136;19;19954;-64
2023/05/15 01:52:00;;;;;;;;;;;;;;;9.95;49.40;101793.97;7358380;19;20857;-64
2023/05/15 01:54:27;;;;;;;;;;;;;;;9.92;49.40;101787.91;7355389;19;19927;-64
2023/05/15 01:56:54;;;;;;;;;;;;;;;9.89;49.26;101788.78;7356671;19;19945;-64
2023/05/15 01:59:20;;;;;;;;;;;;;;;9.86;49.34;101794.00;7343793;19;20002;-64
2023/05/15 02:01:46;;;;;;;;;;;;;;;9.83;49.63;101794.00;7354051;19;20823;-64
2023/05/15 02:04:11;;;;;;;;;;;;;;;9.78;50.06;101785.31;7355353;19;19914;-64
2023/05/15 02:06:36;;;;;;;;;;;;;;;9.76;49.82;101787.06;7353144;19;19929;-65
2023/05/15 02:09:02;;;;;;;;;;;;;;;9.73;49.52;101784.44;7350150;19;20006;-64
2023/05/15 02:11:27;;;;;;;;;;;;;;;9.70;49.92;101787.94;7349804;19;19914;-64
2023/05/15 02:13:53;;;;;;;;;;;;;;;9.69;49.99;101793.19;7352657;19;19922;-64
2023/05/15 02:16:19;;;;;;;;;;;;;;;9.66;49.86;101785.34;7352388;19;19911;-64
2023/05/15 02:18:44;;;;;;;;;;;;;;;9.62;49.72;101785.34;7351730;19;19925;-64
2023/05/15 02:21:10;;;;;;;;;;;;;;;9.59;49.82;101790.56;7351161;19;19954;-64
2023/05/15 02:23:35;;;;;;;;;;;;;;;9.56;49.83;101787.97;7352823;19;19927;-64
2023/05/15 02:26:20;;;;;;;;;;;;;;;9.54;50.46;101789.72;7353023;19;19930;-64
2023/05/15 02:28:53;;;;;;;;;;;;;;;9.51;50.20;101789.69;7351858;19;19910;-64
2023/05/15 02:31:26;;;;;;;;;;;;;;;9.49;50.14;101794.06;7351963;19;19915;-64
2023/05/15 02:33:58;;;;;;;;;;;;;;;9.46;49.91;101790.56;7348548;19;19919;-64
2023/05/15 02:36:27;;;;;;;;;;;;;;;9.44;50.01;101795.81;7350955;19;20702;-64
2023/05/15 02:38:53;;;;;;;;;;;;;;;9.42;50.68;101797.53;7352019;19;20331;-64
2023/05/15 02:41:20;;;;;;;;;;;;;;;9.39;50.51;101797.53;7351662;19;19919;-64
2023/05/15 02:43:48;;;;;;;;;;;;;;;9.37;50.42;101801.88;7352355;19;19930;-64
2023/05/15 02:46:14;;;;;;;;;;;;;;;9.34;50.46;101804.50;7350645;19;19923;-64
2023/05/15 02:48:40;;;;;;;;;;;;;;;9.33;50.34;101810.59;7348970;19;19923;-64
2023/05/15 02:51:06;;;;;;;;;;;;;;;9.30;50.63;101808.84;7348983;19;19922;-64
2023/05/15 02:53:31;;;;;;;;;;;;;;;9.28;50.77;101807.09;7354534;19;19926;-64
2023/05/15 02:55:57;;;;;;;;;;;;;;;9.25;50.64;101809.69;7347672;19;19918;-64
2023/05/15 02:58:22;;;;;;;;;;;;;;;9.22;50.47;101809.69;7348129;19;19927;-64
2023/05/15 03:00:47;;;;;;;;;;;;;;;9.20;50.43;101811.44;7350401;19;19939;-62
2023/05/15 03:03:12;;;;;;;;;;;;;;;9.17;50.68;101816.63;7343184;19;20395;-64
2023/05/15 03:05:38;;;;;;;;;;;;;;;9.13;50.45;101814.91;7344795;19;20335;-64
2023/05/15 03:08:04;;;;;;;;;;;;;;;9.10;50.51;101811.41;7351860;19;20268;-64
2023/05/15 03:10:29;;;;;;;;;;;;;;;9.06;50.97;101820.09;7352860;19;19919;-64
2023/05/15 03:12:57;;;;;;;;;;;;;;;9.04;51.09;101820.97;7351549;19;19939;-64
2023/05/15 03:15:22;;;;;;;;;;;;;;;9.01;50.93;101815.75;7352943;19;19915;-64
2023/05/15 03:17:47;;;;;;;;;;;;;;;8.97;51.53;101820.09;7352644;19;19974;-64
2023/05/15 03:20:13;;;;;;;;;;;;;;;8.95;51.61;101821.81;7320542;19;20034;-64
2023/05/15 03:22:38;;;;;;;;;;;;;;;8.92;51.02;101820.94;7342395;19;19986;-64
2023/05/15 03:25:04;;;;;;;;;;;;;;;8.90;51.06;101827.88;7339147;19;19974;-65
2023/05/15 03:27:29;;;;;;;;;;;;;;;8.87;51.65;101831.38;7340203;19;19919;-64
2023/05/15 03:29:54;;;;;;;;;;;;;;;8.83;51.51;101822.66;7340920;19;19943;-64
2023/05/15 03:32:20;;;;;;;;;;;;;;;8.81;51.70;101826.97;7341944;19;20747;-64
2023/05/15 03:34:45;;;;;;;;;;;;;;;8.79;51.37;101826.13;7339614;19;20485;-64
2023/05/15 03:37:10;;;;;;;;;;;;;;;8.77;50.92;101832.22;7340594;19;20608;-64
2023/05/15 03:39:35;;;;;;;;;;;;;;;8.73;50.83;101835.66;7339931;19;19915;-65
2023/05/15 03:42:01;;;;;;;;;;;;;;;8.71;51.30;101834.78;7339340;19;20815;-65
2023/05/15 03:44:26;;;;;;;;;;;;;;;8.68;51.55;101838.25;7341844;19;19922;-64
2023/05/15 03:46:51;;;;;;;;;;;;;;;8.66;52.18;101833.88;7339789;19;19910;-64
2023/05/15 03:49:17;;;;;;;;;;;;;;;8.64;51.63;101831.28;7341051;19;19938;-64
2023/05/15 03:51:42;;;;;;;;;;;;;;;8.63;51.91;101836.50;7339957;19;19926;-64
2023/05/15 03:54:07;;;;;;;;;;;;;;;8.60;52.01;101833.88;7345131;19;19970;-64
2023/05/15 03:56:32;;;;;;;;;;;;;;;8.57;51.67;101835.63;7346848;19;19968;-64
2023/05/15 03:58:58;;;;;;;;;;;;;;;8.55;51.40;101837.31;7347508;19;19923;-64
2023/05/15 04:01:23;;;;;;;;;;;;;;;8.53;52.17;101828.66;7349177;19;20830;-64
2023/05/15 04:03:48;;;;;;;;;;;;;;;8.51;51.61;101829.50;7346199;19;19919;-64
2023/05/15 04:06:13;;;;;;;;;;;;;;;8.48;51.54;101832.09;7346621;19;19923;-64
2023/05/15 04:08:39;;;;;;;;;;;;;;;8.45;51.92;101825.13;7347758;19;20007;-64
2023/05/15 04:11:04;;;;;;;;;;;;;;;8.43;51.84;101832.09;7345874;19;20742;-64
2023/05/15 04:13:30;;;;;;;;;;;;;;;8.41;51.84;101831.19;7349199;19;19923;-64
2023/05/15 04:15:55;;;;;;;;;;;;;;;8.39;51.78;101825.13;7348331;19;19925;-64
2023/05/15 04:18:20;;;;;;;;;;;;;;;8.37;51.99;101826.84;7347990;19;20025;-64
2023/05/15 04:20:45;;;;;;;;;;;;;;;8.36;52.47;101829.41;7346907;19;19931;-64
2023/05/15 04:23:11;;;;;;;;;;;;;;;8.34;52.75;101832.00;7345987;19;20546;-64
2023/05/15 04:25:36;;;;;;;;;;;;;;;8.33;52.39;101838.06;7348486;19;20721;-64
2023/05/15 04:28:01;;;;;;;;;;;;;;;8.30;52.23;101831.09;7344414;19;19926;-64
2023/05/15 04:30:26;;;;;;;;;;;;;;;8.29;52.20;101823.31;7347270;19;19947;-64
2023/05/15 04:32:52;;;;;;;;;;;;;;;8.27;52.29;101825.03;7345237;19;19918;-64
2023/05/15 04:35:17;;;;;;;;;;;;;;;8.26;52.22;101823.28;7348216;19;20772;-64
2023/05/15 04:37:45;;;;;;;;;;;;;;;8.24;52.49;101822.41;7345998;19;19929;-64
2023/05/15 04:40:13;;;;;;;;;;;;;;;8.21;52.55;101825.88;7346428;19;19918;-64
2023/05/15 04:42:38;;;;;;;;;;;;;;;8.22;52.54;101831.97;7345636;19;19919;-64
2023/05/15 04:45:04;;;;;;;;;;;;;;;8.19;52.74;101831.94;7343462;19;19926;-64
2023/05/15 04:47:29;;;;;;;;;;;;;;;8.17;52.60;101825.84;7345635;19;19930;-64
2023/05/15 04:49:55;;;;;;;;;;;;;;;8.16;52.34;101826.69;7345351;19;20602;-64
2023/05/15 04:52:20;;;;;;;;;;;;;;;8.14;52.61;101825.81;7346420;19;20722;-65
2023/05/15 04:54:46;;;;;;;;;;;;;;;8.12;53.04;101825.81;7344849;19;20384;-64
2023/05/15 04:57:12;;;;;;;;;;;;;;;8.11;52.60;101824.09;7347160;19;20280;-64
2023/05/15 04:59:37;;;;;;;;;;;;;;;8.10;52.45;101829.25;7344319;19;19922;-65
2023/05/15 05:02:02;;;;;;;;;;;;;;;8.09;52.68;101827.53;7347426;19;20515;-65
2023/05/15 05:04:28;;;;;;;;;;;;;;;7.72;52.84;101777.91;7341494;19;19918;-64
2023/05/15 05:06:53;;;;;;;;;;;;;;;8.06;52.42;101831.88;7345226;19;20011;-64
2023/05/15 05:09:18;;;;;;;;;;;;;;;8.05;52.79;101837.91;7344388;19;20043;-64
2023/05/15 05:11:44;;;;;;;;;;;;;;;8.05;52.91;101840.50;7346156;19;19935;-62
2023/05/15 05:14:10;;;;;;;;;;;;;;;8.05;53.04;101835.31;7347452;19;20821;-64
2023/05/15 05:16:35;;;;;;;;;;;;;;;8.05;52.95;101834.44;7340462;19;20362;-64
2023/05/15 05:19:01;;;;;;;;;;;;;;;8.05;52.92;101844.84;7347281;19;20481;-64
2023/05/15 05:21:26;;;;;;;;;;;;;;;8.04;52.81;101838.78;7343918;19;19933;-64
2023/05/15 05:23:51;;;;;;;;;;;;;;;8.05;53.25;101837.91;7346169;19;19918;-65
2023/05/15 05:26:16;;;;;;;;;;;;;;;8.05;52.98;101840.50;7347952;19;20733;-65
2023/05/15 05:28:42;;;;;;;;;;;;;;;8.05;53.24;101842.25;7344961;19;19918;-64
2023/05/15 05:31:07;;;;;;;;;;;;;;;8.06;53.03;101847.47;7346015;19;20013;-65
2023/05/15 05:33:32;;;;;;;;;;;;;;;8.07;52.81;101849.22;7339232;19;20010;-64
2023/05/15 05:35:57;;;;;;;;;;;;;;;8.09;53.22;101850.94;7346542;19;20344;-65
2023/05/15 05:38:23;;;;;;;;;;;;;;;8.09;53.88;101857.03;7342126;19;19926;-64
2023/05/15 05:40:49;;;;;;;;;;;;;;;8.11;53.47;101849.22;7345572;19;19975;-65
2023/05/15 05:43:15;;;;;;;;;;;;;;;8.13;53.27;101857.91;7341730;19;19942;-64
2023/05/15 05:45:40;;;;;;;;;;;;;;;8.15;53.51;101845.78;7347475;19;19935;-64
2023/05/15 05:48:05;;;;;;;;;;;;;;;8.17;53.57;101846.66;7344106;19;19976;-65
2023/05/15 05:50:30;;;;;;;;;;;;;;;8.20;53.63;101852.75;7342141;19;20518;-64
2023/05/15 05:52:56;;;;;;;;;;;;;;;8.23;53.74;101855.38;7345206;19;19936;-65
2023/05/15 05:55:21;;;;;;;;;;;;;;;8.26;53.84;101859.69;7345048;19;20323;-65
2023/05/15 05:57:46;;;;;;;;;;;;;;;8.30;54.00;101851.06;7340289;19;19926;-65
2023/05/15 06:00:13;;;;;;;;;;;;;;;8.32;53.72;101855.44;7352719;19;19922;-64
2023/05/15 06:02:38;;;;;;;;;;;;;;;8.36;54.07;101856.31;7353579;19;21075;-65
2023/05/15 06:05:05;;;;;;;;;;;;;;;8.39;53.85;101851.16;7348366;19;19923;-65
2023/05/15 06:07:30;;;;;;;;;;;;;;;8.42;54.04;101856.38;7356915;19;19911;-65
2023/05/15 06:09:55;;;;;;;;;;;;;;;8.45;54.02;101858.97;7347703;19;19930;-64
2023/05/15 06:12:21;;;;;;;;;;;;;;;8.51;54.27;101864.19;7351885;19;19925;-65
2023/05/15 06:14:46;;;;;;;;;;;;;;;8.53;54.29;101865.09;7347756;19;19929;-65
2023/05/15 06:17:11;;;;;;;;;;;;;;;8.57;54.55;101872.06;7355538;19;19932;-65
2023/05/15 06:19:37;;;;;;;;;;;;;;;8.62;54.44;101876.41;7349181;19;19923;-64
2023/05/15 06:22:02;;;;;;;;;;;;;;;8.66;54.22;101870.34;7353326;19;19935;-64
2023/05/15 06:24:27;;;;;;;;;;;;;;;8.70;54.65;101882.50;7352583;19;19942;-65
2023/05/15 06:26:52;;;;;;;;;;;;;;;8.74;54.48;101873.84;7352746;19;19915;-65
2023/05/15 06:29:19;;;;;;;;;;;;;;;8.78;54.55;101870.41;7353090;19;19914;-65
2023/05/15 06:31:44;;;;;;;;;;;;;;;8.82;54.56;101872.16;7350363;19;20003;-65
2023/05/15 06:34:09;;;;;;;;;;;;;;;8.85;54.79;101864.34;7353841;19;20005;-64
2023/05/15 06:36:35;;;;;;;;;;;;;;;8.91;54.91;101864.34;7351515;19;19953;-64
2023/05/15 06:39:00;;;;;;;;;;;;;;;8.96;54.93;101864.38;7350970;19;19919;-65
2023/05/15 06:41:25;;;;;;;;;;;;;;;9.00;55.13;101866.97;7350653;19;20431;-64
2023/05/15 06:43:51;;;;;;;;;;;;;;;9.05;54.95;101874.81;7353880;19;20838;-65
2023/05/15 06:46:17;;;;;;;;;;;;;;;9.10;55.34;101873.97;7350181;19;19982;-64
2023/05/15 06:48:43;;;;;;;;;;;;;;;9.15;55.23;101870.50;7343461;19;19970;-65
2023/05/15 06:51:08;;;;;;;;;;;;;;;9.20;55.32;101863.56;7325318;19;20045;-65
2023/05/15 06:53:33;;;;;;;;;;;;;;;9.25;55.67;101859.22;7338371;19;20662;-65
2023/05/15 06:55:58;;;;;;;;;;;;;;;9.29;55.70;101868.78;7340001;19;19918;-61
2023/05/15 06:58:24;;;;;;;;;;;;;;;8.99;55.43;101804.47;7340058;19;19923;-62
2023/05/15 07:00:50;;;;;;;;;;;;;;;9.38;55.70;101868.81;7334069;19;20034;-62
2023/05/15 07:03:15;;;;;;;;;;;;;;;9.43;55.67;101866.16;7319199;19;19918;-62
2023/05/15 07:05:41;;;;;;;;;;;;;;;9.48;55.39;101870.56;7334666;19;19919;-62
2023/05/15 07:08:06;;;;;;;;;;;;;;;9.54;55.62;101875.75;7326396;19;19997;-62
2023/05/15 07:10:31;;;;;;;;;;;;;;;9.60;55.80;101869.69;7335926;19;19947;-62
2023/05/15 07:12:57;;;;;;;;;;;;;;;9.66;56.00;101876.63;7335803;19;20205;-62
2023/05/15 07:15:22;;;;;;;;;;;;;;;9.72;55.67;101868.78;7337507;19;19915;-62
2023/05/15 07:17:47;;;;;;;;;;;;;;;9.77;55.76;101877.47;7331245;19;19923;-62
2023/05/15 07:20:12;;;;;;;;;;;;;;;9.84;55.67;101874.03;7335085;19;20328;-62
2023/05/15 07:22:38;;;;;;;;;;;;;;;9.88;56.00;101875.72;7335977;19;20780;-62
2023/05/15 07:25:04;;;;;;;;;;;;;;;9.95;55.74;101882.69;7335844;19;19927;-62
2023/05/15 07:27:29;;;;;;;;;;;;;;;10.00;56.01;101885.31;7333070;19;20976;-61
2023/05/15 07:29:54;;;;;;;;;;;;;;;10.06;56.15;101896.59;7340687;19;19913;-62
2023/05/15 07:32:20;;;;;;;;;;;;;;;10.11;56.06;101892.25;7345168;19;19934;-62
2023/05/15 07:34:45;;;;;;;;;;;;;;;10.18;56.05;101889.59;7340440;19;19918;-62
2023/05/15 07:37:10;;;;;;;;;;;;;;;10.23;56.23;101895.69;7343969;19;20085;-62
2023/05/15 07:39:35;;;;;;;;;;;;;;;10.28;56.32;101893.97;7338390;19;19919;-62
2023/05/15 07:42:01;;;;;;;;;;;;;;;10.33;56.27;101893.09;7338753;19;20695;-62
2023/05/15 07:44:26;;;;;;;;;;;;;;;10.38;56.26;101893.06;7342295;19;20488;-62
2023/05/15 07:46:51;;;;;;;;;;;;;;;10.45;56.28;101900.03;7343249;19;20999;-62
2023/05/15 07:49:16;;;;;;;;;;;;;;;10.52;56.45;101901.75;7340510;19;19933;-62
2023/05/15 07:51:42;;;;;;;;;;;;;;;10.58;56.29;101903.47;7339613;19;19924;-63
2023/05/15 07:54:07;;;;;;;;;;;;;;;10.65;56.19;101897.34;7340312;19;19943;-62
2023/05/15 07:56:32;;;;;;;;;;;;;;;10.71;56.13;101896.47;7340354;19;19910;-62
2023/05/15 07:58:57;;;;;;;;;;;;;;;10.78;56.02;101895.56;7335859;19;19922;-62
2023/05/15 08:01:23;;;;;;;;;;;;;;;10.85;56.20;101890.31;7337550;19;20399;-62
2023/05/15 08:03:48;;;;;;;;;;;;;;;10.91;56.09;101895.50;7338164;19;19951;-62
2023/05/15 08:06:13;;;;;;;;;;;;;;;10.99;56.21;101899.78;7338999;19;19933;-62
2023/05/15 08:08:38;;;;;;;;;;;;;;;11.06;56.36;101889.31;7340138;19;19926;-62
2023/05/15 08:11:04;;;;;;;;;;;;;;;11.15;56.21;101894.50;7337255;19;20033;-62
2023/05/15 08:13:29;;;;;;;;;;;;;;;11.23;56.27;101891.81;7342093;19;19992;-62
2023/05/15 08:15:54;;;;;;;;;;;;;;;11.30;56.21;101892.63;7342792;19;20564;-62
2023/05/15 08:18:20;;;;;;;;;;;;;;;11.39;56.43;101893.44;7336541;19;19923;-62
2023/05/15 08:20:45;;;;;;;;;;;;;;;11.46;56.09;101894.28;7339425;19;20549;-62
2023/05/15 08:23:10;;;;;;;;;;;;;;;11.55;56.31;101899.44;7336897;19;19918;-62
2023/05/15 08:25:36;;;;;;;;;;;;;;;11.63;56.07;101896.78;7338303;19;20006;-62
2023/05/15 08:28:01;;;;;;;;;;;;;;;11.69;55.98;101902.81;7336075;19;19927;-62
2023/05/15 08:30:26;;;;;;;;;;;;;;;11.76;56.28;101901.03;7336971;19;20403;-62
2023/05/15 08:32:52;;;;;;;;;;;;;;;11.82;56.18;101900.16;7331796;19;19918;-62
2023/05/15 08:35:17;;;;;;;;;;;;;;;11.88;56.09;101897.47;7332801;19;20021;-62
2023/05/15 08:37:42;;;;;;;;;;;;;;;11.96;56.25;101895.63;7333317;19;20750;-62
2023/05/15 08:40:08;;;;;;;;;;;;;;;12.04;56.03;101898.19;7332312;19;19978;-62
2023/05/15 08:43:02;;;;;;;;;;;;;;;12.12;56.30;101902.47;7325104;19;20072;-62
2023/05/15 08:45:28;;;;;;;;;;;;;;;12.23;56.01;101904.13;7229467;19;2004328;-62
2023/05/15 08:47:53;;;;;;;;;;;;;;;12.30;55.95;101897.94;7335826;19;19922;-62
2023/05/15 08:50:20;;;;;;;;;;;;;;;12.41;56.04;101899.53;7327950;19;20084;-62
2023/05/15 08:52:45;;;;;;;;;;;;;;;12.54;56.25;101905.53;7342720;19;20651;-62
2023/05/15 08:55:12;;;;;;;;;;;;;;;12.67;56.18;101914.09;7338933;19;19925;-62
2023/05/15 08:57:37;;;;;;;;;;;;;;;12.79;56.31;101902.59;7343247;19;20312;-62
2023/05/15 09:00:07;;;;;;;;;;;;;;;12.91;56.50;101902.44;7338427;19;19943;-62
2023/05/15 09:02:33;;;;;;;;;;;;;;;13.02;56.14;101905.78;7337038;19;19927;-62
2023/05/15 09:04:59;;;;;;;;;;;;;;;13.13;56.20;101911.75;7337484;19;19922;-62
2023/05/15 09:07:24;;;;;;;;;;;;;;;13.02;56.20;101882.19;7339817;19;19931;-62
2023/05/15 09:09:50;;;;;;;;;;;;;;;13.37;56.39;101909.69;7340253;19;19923;-62
2023/05/15 09:12:15;;;;;;;;;;;;;;;13.54;56.65;101915.56;7339368;19;20853;-62
2023/05/15 09:14:41;;;;;;;;;;;;;;;13.76;56.33;101911.69;7339651;19;20212;-62
2023/05/15 09:17:08;;;;;;;;;;;;;;;14.02;56.52;101910.38;7338498;19;19986;-62
2023/05/15 09:19:34;;;;;;;;;;;;;;;14.33;56.59;101912.44;7340053;19;20738;-62
2023/05/15 09:22:25;;;;;;;;;;;;;;;14.63;56.43;101918.91;7336383;19;19933;-62
2023/05/15 09:24:51;;;;;;;;;;;;;;;14.87;55.99;101918.41;7339828;19;19915;-62
2023/05/15 09:27:17;;;;;;;;;;;;;;;15.04;55.62;101918.91;7337689;19;19945;-62
2023/05/15 09:29:43;;;;;;;;;;;;;;;15.22;55.47;101925.53;7340001;19;19927;-62
2023/05/15 09:32:09;;;;;;;;;;;;;;;15.42;55.76;101921.59;7340061;19;19930;-62
2023/05/15 09:34:35;;;;;;;;;;;;;;;15.64;55.27;101920.19;7338437;19;19923;-62
2023/05/15 09:37:02;;;;;;;;;;;;;;;15.93;55.72;101914.22;7339257;19;19938;-62
2023/05/15 09:39:27;;;;;;;;;;;;;;;16.27;55.80;101908.94;7338032;19;20624;-62
2023/05/15 09:41:55;;;;;;;;;;;;;;;16.65;56.14;101909.63;7338115;19;19934;-63
2023/05/15 09:44:24;;;;;;;;;;;;;;;17.01;56.38;101907.69;7338026;19;19951;-63
2023/05/15 09:46:50;;;;;;;;;;;;;;;17.34;55.40;101908.44;7340501;19;19950;-62
2023/05/15 09:49:15;;;;;;;;;;;;;;;17.57;54.95;101912.09;7337984;19;19927;-63
2023/05/15 09:51:42;;;;;;;;;;;;;;;17.73;54.32;101900.16;7333836;19;19978;-62
2023/05/15 09:54:12;;;;;;;;;;;;;;;17.79;53.78;101907.91;7335962;19;19994;-63
2023/05/15 09:56:39;;;;;;;;;;;;;;;17.81;53.47;101899.91;7322141;19;19926;-63
2023/05/15 09:59:05;;;;;;;;;;;;;;;17.80;52.96;101906.97;7326857;19;19970;-63
2023/05/15 10:01:30;;;;;;;;;;;;;;;17.79;52.89;101902.63;7339833;19;20849;-63
2023/05/15 10:03:57;;;;;;;;;;;;;;;17.84;53.49;101905.06;7337579;19;19963;-65
2023/05/15 10:06:22;;;;;;;;;;;;;;;17.98;53.45;101904.63;7337641;19;19934;-65
2023/05/15 10:08:52;;;;;;;;;;;;;;;18.18;53.27;101901.28;7338467;19;19926;-65
2023/05/15 10:11:18;;;;;;;;;;;;;;;18.41;53.24;101902.19;7337780;19;19923;-65
2023/05/15 10:13:43;;;;;;;;;;;;;;;18.76;54.27;101909.78;7337361;19;20505;-65
2023/05/15 10:16:09;;;;;;;;;;;;;;;19.08;53.84;101916.50;7339355;19;19938;-65
2023/05/15 10:18:35;;;;;;;;;;;;;;;19.30;53.13;101917.34;7337101;19;19918;-66
2023/05/15 10:21:03;;;;;;;;;;;;;;;19.40;51.58;101912.56;7338079;19;19950;-65
2023/05/15 10:23:29;;;;;;;;;;;;;;;19.45;51.35;101919.38;7337867;19;19990;-65
2023/05/15 10:26:01;;;;;;;;;;;;;;;19.47;51.13;101915.84;7338441;19;20650;-66
2023/05/15 10:28:27;;;;;;;;;;;;;;;19.44;50.83;101916.81;7335850;19;19915;-65
2023/05/15 10:30:53;;;;;;;;;;;;;;;19.43;50.80;101923.91;7338179;19;19935;-65
2023/05/15 10:33:19;;;;;;;;;;;;;;;19.41;50.49;101923.13;7339241;19;19926;-66
2023/05/15 10:35:45;;;;;;;;;;;;;;;19.40;50.78;101918.72;7337906;19;19922;-66
2023/05/15 10:38:11;;;;;;;;;;;;;;;19.42;50.49;101924.84;7337375;19;19921;-65
2023/05/15 10:40:39;;;;;;;;;;;;;;;19.44;50.15;101922.97;7336481;19;19937;-65
2023/05/15 10:43:04;;;;;;;;;;;;;;;19.47;49.80;101926.44;7337218;19;19942;-65
2023/05/15 10:45:30;;;;;;;;;;;;;;;19.50;50.05;101931.59;7337052;19;20463;-66
2023/05/15 10:47:56;;;;;;;;;;;;;;;19.56;49.93;101932.19;7337187;19;20037;-66
2023/05/15 10:50:21;;;;;;;;;;;;;;;19.75;51.13;101937.66;7336562;19;20022;-66
2023/05/15 10:52:49;;;;;;;;;;;;;;;20.09;51.05;101920.34;7339438;19;19925;-67
2023/05/15 10:55:15;;;;;;;;;;;;;;;20.52;51.31;101916.66;7335915;19;19941;-65
2023/05/15 10:57:41;;;;;;;;;;;;;;;21.06;52.74;101925.69;7338580;19;20220;-66
2023/05/15 11:00:21;;;;;;;;;;;;;;;21.65;51.71;101931.75;7331847;19;19946;-65
2023/05/15 11:02:47;;;;;;;;;;;;;;;22.30;51.81;101927.53;7333030;19;20224;-66
2023/05/15 11:05:13;;;;;;;;;;;;;;;22.90;52.09;101927.91;7337073;19;20413;-66
2023/05/15 11:07:38;;;;;;;;;;;;;;;23.43;51.91;101939.19;7338342;19;20256;-66
2023/05/15 11:10:23;;;;;;;;;;;;;;;23.76;50.23;101933.72;7335554;19;19978;-66
2023/05/15 11:12:56;;;;;;;;;;;;;;;24.02;49.75;101929.50;7338155;19;19926;-66
2023/05/15 11:15:21;;;;;;;;;;;;;;;24.22;49.13;101934.50;7334290;19;19954;-65
2023/05/15 11:18:03;;;;;;;;;;;;;;;24.38;48.01;101925.59;7338415;19;20498;-66
2023/05/15 11:20:32;;;;;;;;;;;;;;;24.66;49.01;101924.75;7335932;19;20678;-66
2023/05/15 11:22:58;;;;;;;;;;;;;;;25.00;48.14;101919.00;7328201;19;21442;-67
2023/05/15 11:25:28;;;;;;;;;;;;;;;25.38;48.74;101923.69;7330231;19;19923;-66
2023/05/15 11:27:54;;;;;;;;;;;;;;;25.80;48.07;101922.72;7334764;19;19951;-66
2023/05/15 11:30:32;;;;;;;;;;;;;;;26.20;47.32;101921.78;7332720;19;19922;-66
2023/05/15 11:33:07;;;;;;;;;;;;;;;26.36;47.24;101875.09;7334187;19;19918;-66
2023/05/15 11:35:41;;;;;;;;;;;;;;;27.11;47.71;101915.28;7334413;19;19922;-66
2023/05/15 11:38:09;;;;;;;;;;;;;;;27.56;46.64;101918.22;7334475;19;19943;-66
2023/05/15 11:40:48;;;;;;;;;;;;;;;27.95;46.55;101910.81;7333624;19;19957;-66
2023/05/15 11:43:29;;;;;;;;;;;;;;;28.25;44.86;101912.97;7325126;19;19915;-66
2023/05/15 11:46:03;;;;;;;;;;;;;;;28.54;44.56;101908.00;7335840;19;19948;-66
2023/05/15 11:48:36;;;;;;;;;;;;;;;28.87;44.63;101914.31;7333448;19;19941;-64
2023/05/15 11:51:02;;;;;;;;;;;;;;;28.69;43.63;101825.25;7336482;19;19922;-64
2023/05/15 11:53:28;;;;;;;;;;;;;;;29.62;43.49;101911.72;7335849;19;19923;-64
2023/05/15 11:55:53;;;;;;;;;;;;;;;30.04;42.59;101906.34;7334495;19;19925;-64
2023/05/15 11:58:20;;;;;;;;;;;;;;;30.47;43.29;101908.06;7336864;19;19918;-64
2023/05/15 12:00:46;;;;;;;;;;;;;;;30.77;43.48;101925.19;7334661;19;20239;-64
2023/05/15 12:03:16;;;;;;;;;;;;;;;30.82;41.22;101922.94;7336117;19;20040;-64
2023/05/15 12:05:41;;;;;;;;;;;;;;;30.67;39.55;101917.06;7333966;19;19926;-64
2023/05/15 12:08:10;;;;;;;;;;;;;;;30.55;39.11;101913.59;7335653;19;20005;-64
2023/05/15 12:10:39;;;;;;;;;;;;;;;30.55;40.30;101916.28;7334520;19;19926;-64
2023/05/15 12:13:04;;;;;;;;;;;;;;;30.66;39.46;101908.09;7333902;19;20622;-64
2023/05/15 12:15:30;;;;;;;;;;;;;;;30.90;39.13;101917.72;7336800;19;19944;-64
2023/05/15 12:17:55;;;;;;;;;;;;;;;31.11;41.37;101921.19;7340794;19;19935;-64
2023/05/15 12:20:20;;;;;;;;;;;;;;;31.13;38.73;101911.13;7336728;19;19948;-64
2023/05/15 12:22:45;;;;;;;;;;;;;;;31.05;38.05;101912.81;7341004;19;19929;-63
2023/05/15 12:25:11;;;;;;;;;;;;;;;30.97;38.38;101900.00;7340927;19;19925;-64
2023/05/15 12:27:38;;;;;;;;;;;;;;;31.01;39.74;101906.81;7339745;19;19922;-64
2023/05/15 12:30:05;;;;;;;;;;;;;;;31.17;40.39;101906.28;7338575;19;19977;-64
2023/05/15 12:32:32;;;;;;;;;;;;;;;31.33;39.93;101905.78;7338454;19;20587;-64
2023/05/15 12:34:58;;;;;;;;;;;;;;;31.55;38.80;101910.91;7336400;19;19926;-64
2023/05/15 12:37:26;;;;;;;;;;;;;;;31.86;39.94;101899.97;7341265;19;20830;-64